sensor_id;sensor_type;location;lat;lon;timestamp;pressure;altitude;pressure_sealevel;temperature;humidity
66486;BME280;53303;47.476;8.084;2023-03-12T00:02:00;94780.69;;;18.66;36.86
66486;BME280;53303;47.476;8.084;2023-03-12T00:04:26;94803.75;;;18.74;36.76
66486;BME280;53303;47.476;8.084;2023-03-12T00:06:51;94803.69;;;18.80;36.62
66486;BME280;53303;47.476;8.084;2023-03-12T00:09:17;94798.31;;;18.63;36.70
66486;BME280;53303;47.476;8.084;2023-03-12T00:11:45;94862.25;;;19.20;36.79
66486;BME280;53303;47.476;8.084;2023-03-12T00:14:10;94794.75;;;18.68;36.83
66486;BME280;53303;47.476;8.084;2023-03-12T00:16:36;94864.72;;;19.24;36.94
66486;BME280;53303;47.476;8.084;2023-03-12T00:19:03;94849.00;;;19.07;36.84
66486;BME280;53303;47.476;8.084;2023-03-12T00:21:30;94856.44;;;19.24;36.78
66486;BME280;53303;47.476;8.084;2023-03-12T00:23:57;94857.69;;;19.23;36.77
66486;BME280;53303;47.476;8.084;2023-03-12T00:26:46;94868.28;;;19.18;36.78
66486;BME280;53303;47.476;8.084;2023-03-12T00:29:13;94839.50;;;19.02;36.73
66486;BME280;53303;47.476;8.084;2023-03-12T00:31:39;94861.97;;;19.24;36.69
66486;BME280;53303;47.476;8.084;2023-03-12T00:34:04;94780.47;;;18.58;36.65
66486;BME280;53303;47.476;8.084;2023-03-12T00:36:31;94868.75;;;19.23;36.65
66486;BME280;53303;47.476;8.084;2023-03-12T00:38:59;94824.72;;;18.94;36.77
66486;BME280;53303;47.476;8.084;2023-03-12T00:41:25;94839.72;;;19.05;36.64
66486;BME280;53303;47.476;8.084;2023-03-12T00:43:51;94825.50;;;18.89;36.84
66486;BME280;53303;47.476;8.084;2023-03-12T00:46:18;94844.75;;;19.06;36.93
66486;BME280;53303;47.476;8.084;2023-03-12T00:48:44;94849.53;;;19.06;36.90
66486;BME280;53303;47.476;8.084;2023-03-12T00:51:11;94868.00;;;19.22;36.78
66486;BME280;53303;47.476;8.084;2023-03-12T00:53:36;94808.53;;;18.74;36.71
66486;BME280;53303;47.476;8.084;2023-03-12T00:56:05;94828.34;;;18.78;37.00
66486;BME280;53303;47.476;8.084;2023-03-12T00:58:31;94788.53;;;18.56;36.58
66486;BME280;53303;47.476;8.084;2023-03-12T01:00:59;94793.84;;;18.54;36.61
66486;BME280;53303;47.476;8.084;2023-03-12T01:03:26;94880.56;;;19.23;36.53
66486;BME280;53303;47.476;8.084;2023-03-12T01:05:52;94838.03;;;18.96;36.56
66486;BME280;53303;47.476;8.084;2023-03-12T01:08:21;94877.78;;;19.23;36.45
66486;BME280;53303;47.476;8.084;2023-03-12T01:10:47;94854.56;;;19.01;36.63
66486;BME280;53303;47.476;8.084;2023-03-12T01:13:12;94854.81;;;19.03;36.77
66486;BME280;53303;47.476;8.084;2023-03-12T01:15:38;94763.31;;;18.35;36.66
66486;BME280;53303;47.476;8.084;2023-03-12T01:18:03;94788.78;;;18.58;36.67
66486;BME280;53303;47.476;8.084;2023-03-12T01:20:29;94795.59;;;18.57;36.61
66486;BME280;53303;47.476;8.084;2023-03-12T01:23:00;94875.78;;;19.24;36.55
66486;BME280;53303;47.476;8.084;2023-03-12T01:25:25;94898.66;;;19.24;36.71
66486;BME280;53303;47.476;8.084;2023-03-12T01:27:51;94881.34;;;19.24;36.49
66486;BME280;53303;47.476;8.084;2023-03-12T01:30:19;94849.88;;;18.91;36.32
66486;BME280;53303;47.476;8.084;2023-03-12T01:32:44;94836.63;;;18.83;36.57
66486;BME280;53303;47.476;8.084;2023-03-12T01:35:12;94856.41;;;18.93;36.49
66486;BME280;53303;47.476;8.084;2023-03-12T01:37:40;94860.84;;;19.08;36.51
66486;BME280;53303;47.476;8.084;2023-03-12T01:40:06;94781.59;;;18.44;36.54
66486;BME280;53303;47.476;8.084;2023-03-12T01:42:31;94805.75;;;18.74;36.43
66486;BME280;53303;47.476;8.084;2023-03-12T01:44:59;94878.56;;;19.24;36.50
66486;BME280;53303;47.476;8.084;2023-03-12T01:47:26;94849.25;;;19.09;36.91
66486;BME280;53303;47.476;8.084;2023-03-12T01:49:54;94847.78;;;19.02;36.50
66486;BME280;53303;47.476;8.084;2023-03-12T01:52:35;94764.00;;;18.47;36.32
66486;BME280;53303;47.476;8.084;2023-03-12T01:55:12;94779.75;;;18.58;36.48
66486;BME280;53303;47.476;8.084;2023-03-12T02:00:14;94770.94;;;18.59;36.39
66486;BME280;53303;47.476;8.084;2023-03-12T02:02:41;94786.69;;;18.70;36.48
66486;BME280;53303;47.476;8.084;2023-03-12T02:05:24;94868.97;;;19.25;36.39
66486;BME280;53303;47.476;8.084;2023-03-12T02:07:52;94850.50;;;19.08;36.72
66486;BME280;53303;47.476;8.084;2023-03-12T02:10:18;94775.97;;;18.55;36.39
66486;BME280;53303;47.476;8.084;2023-03-12T02:12:44;94783.25;;;18.58;36.46
66486;BME280;53303;47.476;8.084;2023-03-12T02:15:12;94797.47;;;18.74;36.27
66486;BME280;53303;47.476;8.084;2023-03-12T02:17:37;94819.75;;;18.87;36.42
66486;BME280;53303;47.476;8.084;2023-03-12T02:22:41;94855.16;;;19.25;36.46
66486;BME280;53303;47.476;8.084;2023-03-12T02:25:26;94860.19;;;19.26;36.36
66486;BME280;53303;47.476;8.084;2023-03-12T02:27:56;94834.16;;;19.10;36.20
66486;BME280;53303;47.476;8.084;2023-03-12T02:30:23;94841.47;;;19.08;36.59
66486;BME280;53303;47.476;8.084;2023-03-12T02:32:49;94857.41;;;19.26;36.46
66486;BME280;53303;47.476;8.084;2023-03-12T02:35:16;94795.16;;;18.78;36.21
66486;BME280;53303;47.476;8.084;2023-03-12T02:37:49;94859.19;;;19.24;36.27
66486;BME280;53303;47.476;8.084;2023-03-12T02:40:40;94859.50;;;19.14;36.53
66486;BME280;53303;47.476;8.084;2023-03-12T02:43:08;94796.69;;;18.73;36.53
66486;BME280;53303;47.476;8.084;2023-03-12T02:45:36;94832.00;;;18.97;36.45
66486;BME280;53303;47.476;8.084;2023-03-12T02:48:03;94863.69;;;19.27;36.38
66486;BME280;53303;47.476;8.084;2023-03-12T02:50:31;94835.44;;;19.09;36.45
66486;BME280;53303;47.476;8.084;2023-03-12T02:52:56;94799.97;;;18.77;36.40
66486;BME280;53303;47.476;8.084;2023-03-12T02:55:22;94829.69;;;19.01;36.21
66486;BME280;53303;47.476;8.084;2023-03-12T02:57:47;94818.00;;;18.90;36.59
66486;BME280;53303;47.476;8.084;2023-03-12T03:00:14;94856.66;;;19.26;36.38
66486;BME280;53303;47.476;8.084;2023-03-12T03:02:42;94799.69;;;18.81;36.39
66486;BME280;53303;47.476;8.084;2023-03-12T03:05:10;94851.88;;;19.26;36.43
66486;BME280;53303;47.476;8.084;2023-03-12T03:07:36;94846.34;;;19.26;36.45
66486;BME280;53303;47.476;8.084;2023-03-12T03:10:02;94803.75;;;19.10;36.39
66486;BME280;53303;47.476;8.084;2023-03-12T03:12:35;94726.00;;;18.53;36.43
66486;BME280;53303;47.476;8.084;2023-03-12T03:15:02;94716.72;;;18.56;36.46
66486;BME280;53303;47.476;8.084;2023-03-12T03:17:28;94824.97;;;19.27;36.45
66486;BME280;53303;47.476;8.084;2023-03-12T03:19:54;94720.94;;;18.63;36.45
66486;BME280;53303;47.476;8.084;2023-03-12T03:22:20;94783.47;;;19.27;36.30
66486;BME280;53303;47.476;8.084;2023-03-12T03:24:46;94707.69;;;18.56;36.54
66486;BME280;53303;47.476;8.084;2023-03-12T03:27:12;94713.06;;;18.73;36.34
66486;BME280;53303;47.476;8.084;2023-03-12T03:29:38;94743.91;;;18.82;36.33
66486;BME280;53303;47.476;8.084;2023-03-12T03:32:04;94775.00;;;18.89;36.39
66486;BME280;53303;47.476;8.084;2023-03-12T03:34:30;94832.00;;;19.28;36.43
66486;BME280;53303;47.476;8.084;2023-03-12T03:36:55;94757.09;;;18.65;36.24
66486;BME280;53303;47.476;8.084;2023-03-12T03:39:21;94796.16;;;18.86;36.41
66486;BME280;53303;47.476;8.084;2023-03-12T03:41:46;94865.19;;;19.28;36.46
66486;BME280;53303;47.476;8.084;2023-03-12T03:44:16;94851.97;;;19.15;36.34
66486;BME280;53303;47.476;8.084;2023-03-12T03:46:42;94856.50;;;19.12;36.41
66486;BME280;53303;47.476;8.084;2023-03-12T03:49:11;94858.53;;;19.12;36.31
66486;BME280;53303;47.476;8.084;2023-03-12T03:51:39;94801.25;;;18.71;36.20
66486;BME280;53303;47.476;8.084;2023-03-12T03:54:07;94809.47;;;18.82;36.56
66486;BME280;53303;47.476;8.084;2023-03-12T03:56:33;94873.50;;;19.28;36.51
66486;BME280;53303;47.476;8.084;2023-03-12T03:58:59;94775.19;;;18.60;36.46
66486;BME280;53303;47.476;8.084;2023-03-12T04:01:26;94855.75;;;19.12;36.37
66486;BME280;53303;47.476;8.084;2023-03-12T04:03:51;94843.97;;;19.11;36.50
66486;BME280;53303;47.476;8.084;2023-03-12T04:06:17;94776.63;;;18.73;36.30
66486;BME280;53303;47.476;8.084;2023-03-12T04:08:42;94837.91;;;19.13;36.43
66486;BME280;53303;47.476;8.084;2023-03-12T04:11:13;94762.09;;;18.67;36.53
66486;BME280;53303;47.476;8.084;2023-03-12T04:13:39;94788.88;;;18.83;36.38
66486;BME280;53303;47.476;8.084;2023-03-12T04:16:05;94764.09;;;18.66;36.43
66486;BME280;53303;47.476;8.084;2023-03-12T04:18:31;94829.53;;;19.24;36.36
66486;BME280;53303;47.476;8.084;2023-03-12T04:20:59;94768.50;;;18.80;36.66
66486;BME280;53303;47.476;8.084;2023-03-12T04:23:24;94792.03;;;18.98;36.23
66486;BME280;53303;47.476;8.084;2023-03-12T04:25:50;94839.56;;;19.27;36.51
66486;BME280;53303;47.476;8.084;2023-03-12T04:28:16;94758.28;;;18.70;36.37
66486;BME280;53303;47.476;8.084;2023-03-12T04:30:42;94844.84;;;19.25;36.33
66486;BME280;53303;47.476;8.084;2023-03-12T04:33:10;94850.63;;;19.27;36.26
66486;BME280;53303;47.476;8.084;2023-03-12T04:35:35;94767.41;;;18.64;36.37
66486;BME280;53303;47.476;8.084;2023-03-12T04:38:02;94813.38;;;18.98;36.25
66486;BME280;53303;47.476;8.084;2023-03-12T04:40:28;94747.38;;;18.53;36.22
66486;BME280;53303;47.476;8.084;2023-03-12T04:42:56;94841.59;;;19.21;36.32
66486;BME280;53303;47.476;8.084;2023-03-12T04:45:24;94743.31;;;18.59;36.19
66486;BME280;53303;47.476;8.084;2023-03-12T04:47:50;94772.81;;;18.81;36.30
66486;BME280;53303;47.476;8.084;2023-03-12T04:50:15;94768.09;;;18.71;36.46
66486;BME280;53303;47.476;8.084;2023-03-12T04:52:41;94755.44;;;18.51;36.45
66486;BME280;53303;47.476;8.084;2023-03-12T04:55:07;94751.38;;;18.57;36.23
66486;BME280;53303;47.476;8.084;2023-03-12T04:57:32;94852.63;;;19.27;36.36
66486;BME280;53303;47.476;8.084;2023-03-12T04:59:58;94828.94;;;19.01;36.25
66486;BME280;53303;47.476;8.084;2023-03-12T05:02:23;94745.69;;;18.44;36.31
66486;BME280;53303;47.476;8.084;2023-03-12T05:04:49;94820.72;;;18.95;36.23
66486;BME280;53303;47.476;8.084;2023-03-12T05:07:14;94760.44;;;18.52;36.40
66486;BME280;53303;47.476;8.084;2023-03-12T05:09:40;94783.44;;;18.66;36.50
66486;BME280;53303;47.476;8.084;2023-03-12T05:12:08;94773.66;;;18.65;36.40
66486;BME280;53303;47.476;8.084;2023-03-12T05:14:37;94848.72;;;19.11;36.28
66486;BME280;53303;47.476;8.084;2023-03-12T05:17:03;94844.81;;;19.00;36.48
66486;BME280;53303;47.476;8.084;2023-03-12T05:19:29;94793.25;;;18.67;36.37
66486;BME280;53303;47.476;8.084;2023-03-12T05:21:57;94885.06;;;19.26;36.43
66486;BME280;53303;47.476;8.084;2023-03-12T05:24:25;94815.50;;;18.80;36.60
66486;BME280;53303;47.476;8.084;2023-03-12T05:26:51;94846.34;;;18.96;36.64
66486;BME280;53303;47.476;8.084;2023-03-12T05:29:17;94861.34;;;19.06;36.19
66486;BME280;53303;47.476;8.084;2023-03-12T05:31:42;94815.00;;;18.82;36.31
66486;BME280;53303;47.476;8.084;2023-03-12T05:34:10;94794.03;;;18.62;35.95
66486;BME280;53303;47.476;8.084;2023-03-12T05:36:36;94815.97;;;18.90;36.33
66486;BME280;53303;47.476;8.084;2023-03-12T05:39:05;94842.53;;;18.99;36.19
66486;BME280;53303;47.476;8.084;2023-03-12T05:41:30;94839.72;;;19.05;36.35
66486;BME280;53303;47.476;8.084;2023-03-12T05:43:56;94796.97;;;18.75;36.27
66486;BME280;53303;47.476;8.084;2023-03-12T05:46:25;94860.91;;;19.27;36.32
66486;BME280;53303;47.476;8.084;2023-03-12T05:48:52;94768.19;;;18.59;36.41
66486;BME280;53303;47.476;8.084;2023-03-12T05:51:18;94779.69;;;18.63;36.47
66486;BME280;53303;47.476;8.084;2023-03-12T05:53:44;94792.44;;;18.72;36.34
66486;BME280;53303;47.476;8.084;2023-03-12T05:56:16;94847.84;;;19.27;36.37
66486;BME280;53303;47.476;8.084;2023-03-12T05:58:47;94839.97;;;19.07;36.37
66486;BME280;53303;47.476;8.084;2023-03-12T06:01:16;94770.78;;;18.82;36.50
66486;BME280;53303;47.476;8.084;2023-03-12T06:03:42;94785.84;;;18.81;36.30
66486;BME280;53303;47.476;8.084;2023-03-12T06:06:08;94774.34;;;18.71;36.29
66486;BME280;53303;47.476;8.084;2023-03-12T06:08:37;94737.44;;;18.38;36.43
66486;BME280;53303;47.476;8.084;2023-03-12T06:11:02;94860.91;;;19.27;36.30
66486;BME280;53303;47.476;8.084;2023-03-12T06:13:32;94774.63;;;18.68;36.51
66486;BME280;53303;47.476;8.084;2023-03-12T06:16:27;94868.75;;;19.23;36.40
66486;BME280;53303;47.476;8.084;2023-03-12T06:18:59;94796.22;;;18.69;36.51
66486;BME280;53303;47.476;8.084;2023-03-12T06:21:26;94879.41;;;19.13;36.66
66486;BME280;53303;47.476;8.084;2023-03-12T06:23:54;94824.16;;;18.65;36.59
66486;BME280;53303;47.476;8.084;2023-03-12T06:26:21;94868.56;;;19.15;36.44
66486;BME280;53303;47.476;8.084;2023-03-12T06:28:49;94793.03;;;18.59;36.35
66486;BME280;53303;47.476;8.084;2023-03-12T06:31:15;94898.16;;;19.26;36.41
66486;BME280;53303;47.476;8.084;2023-03-12T06:33:40;94760.06;;;18.31;36.50
66486;BME280;53303;47.476;8.084;2023-03-12T06:36:07;94891.34;;;19.27;36.43
66486;BME280;53303;47.476;8.084;2023-03-12T06:38:34;94918.25;;;19.26;36.31
66486;BME280;53303;47.476;8.084;2023-03-12T06:41:08;94898.16;;;19.26;36.11
66486;BME280;53303;47.476;8.084;2023-03-12T06:43:35;94784.63;;;18.40;36.61
66486;BME280;53303;47.476;8.084;2023-03-12T06:46:03;94900.19;;;19.19;36.40
66486;BME280;53303;47.476;8.084;2023-03-12T06:48:30;94911.03;;;19.17;36.45
66486;BME280;53303;47.476;8.084;2023-03-12T06:51:03;94924.38;;;19.13;36.58
66486;BME280;53303;47.476;8.084;2023-03-12T06:53:29;94837.03;;;18.52;36.32
66486;BME280;53303;47.476;8.084;2023-03-12T06:55:55;94867.06;;;18.72;36.47
66486;BME280;53303;47.476;8.084;2023-03-12T06:58:20;94834.06;;;18.44;36.54
66486;BME280;53303;47.476;8.084;2023-03-12T07:00:45;94843.81;;;18.56;36.30
66486;BME280;53303;47.476;8.084;2023-03-12T07:03:11;94821.50;;;18.43;36.41
66486;BME280;53303;47.476;8.084;2023-03-12T07:05:37;94945.91;;;19.26;36.35
66486;BME280;53303;47.476;8.084;2023-03-12T07:08:02;94948.19;;;19.28;36.43
66486;BME280;53303;47.476;8.084;2023-03-12T07:10:28;94864.13;;;18.64;36.36
66486;BME280;53303;47.476;8.084;2023-03-12T07:12:54;94892.91;;;18.75;36.53
66486;BME280;53303;47.476;8.084;2023-03-12T07:15:21;94873.63;;;18.69;36.44
66486;BME280;53303;47.476;8.084;2023-03-12T07:17:46;94868.34;;;18.65;36.59
66486;BME280;53303;47.476;8.084;2023-03-12T07:20:12;94835.09;;;18.41;36.43
66486;BME280;53303;47.476;8.084;2023-03-12T07:22:40;94902.97;;;18.78;36.38
66486;BME280;53303;47.476;8.084;2023-03-12T07:25:08;94835.09;;;18.41;36.29
66486;BME280;53303;47.476;8.084;2023-03-12T07:27:34;94863.84;;;18.62;36.24
66486;BME280;53303;47.476;8.084;2023-03-12T07:29:59;94874.88;;;18.68;36.52
66486;BME280;53303;47.476;8.084;2023-03-12T07:32:27;94876.84;;;18.73;36.49
66486;BME280;53303;47.476;8.084;2023-03-12T07:35:00;94917.38;;;19.07;36.43
66486;BME280;53303;47.476;8.084;2023-03-12T07:37:25;94921.13;;;19.15;36.49
66486;BME280;53303;47.476;8.084;2023-03-12T07:39:51;94877.56;;;18.79;36.69
66486;BME280;53303;47.476;8.084;2023-03-12T07:42:18;94925.13;;;19.14;36.77
66486;BME280;53303;47.476;8.084;2023-03-12T07:44:44;94913.59;;;19.10;37.08
66486;BME280;53303;47.476;8.084;2023-03-12T07:47:09;94902.88;;;19.00;37.40
66486;BME280;53303;47.476;8.084;2023-03-12T07:49:35;94861.50;;;18.83;37.53
66486;BME280;53303;47.476;8.084;2023-03-12T07:52:06;94936.56;;;19.35;37.47
66486;BME280;53303;47.476;8.084;2023-03-12T07:54:36;94931.78;;;19.35;37.71
66486;BME280;53303;47.476;8.084;2023-03-12T07:57:02;94891.47;;;19.10;37.80
66486;BME280;53303;47.476;8.084;2023-03-12T07:59:28;94898.53;;;19.05;37.93
66486;BME280;53303;47.476;8.084;2023-03-12T08:01:54;94857.78;;;18.70;37.86
66486;BME280;53303;47.476;8.084;2023-03-12T08:04:19;94901.84;;;18.98;37.75
66486;BME280;53303;47.476;8.084;2023-03-12T08:06:47;94943.34;;;19.34;37.89
66486;BME280;53303;47.476;8.084;2023-03-12T08:09:13;94856.09;;;18.61;37.77
66486;BME280;53303;47.476;8.084;2023-03-12T08:11:38;94870.53;;;18.78;37.87
66486;BME280;53303;47.476;8.084;2023-03-12T08:14:04;94896.56;;;19.00;37.78
66486;BME280;53303;47.476;8.084;2023-03-12T08:16:29;94816.78;;;18.38;37.71
66486;BME280;53303;47.476;8.084;2023-03-12T08:18:55;94859.56;;;18.67;37.75
66486;BME280;53303;47.476;8.084;2023-03-12T08:21:20;94882.59;;;18.81;37.63
66486;BME280;53303;47.476;8.084;2023-03-12T08:23:48;94969.25;;;19.36;37.63
66486;BME280;53303;47.476;8.084;2023-03-12T08:26:14;94910.19;;;18.92;37.51
66486;BME280;53303;47.476;8.084;2023-03-12T08:28:41;94974.78;;;19.36;37.91
66486;BME280;53303;47.476;8.084;2023-03-12T08:31:07;94951.72;;;19.23;37.57
66486;BME280;53303;47.476;8.084;2023-03-12T08:33:34;94848.34;;;18.48;37.58
66486;BME280;53303;47.476;8.084;2023-03-12T08:35:59;94921.97;;;18.98;37.59
66486;BME280;53303;47.476;8.084;2023-03-12T08:38:25;94951.25;;;19.18;37.68
66486;BME280;53303;47.476;8.084;2023-03-12T08:40:57;94954.22;;;19.26;37.49
66486;BME280;53303;47.476;8.084;2023-03-12T08:43:24;94980.53;;;19.38;37.43
66486;BME280;53303;47.476;8.084;2023-03-12T08:45:57;94966.00;;;19.32;37.64
66486;BME280;53303;47.476;8.084;2023-03-12T08:48:23;94981.28;;;19.39;37.51
66486;BME280;53303;47.476;8.084;2023-03-12T08:50:49;94966.75;;;19.33;37.43
66486;BME280;53303;47.476;8.084;2023-03-12T08:53:15;94959.00;;;19.26;37.32
66486;BME280;53303;47.476;8.084;2023-03-12T08:55:40;94970.03;;;19.31;37.55
66486;BME280;53303;47.476;8.084;2023-03-12T08:58:06;94972.28;;;19.33;37.20
66486;BME280;53303;47.476;8.084;2023-03-12T09:00:31;94974.03;;;19.30;37.52
66486;BME280;53303;47.476;8.084;2023-03-12T09:02:57;94985.34;;;19.38;37.47
66486;BME280;53303;47.476;8.084;2023-03-12T09:05:25;94990.59;;;19.42;37.46
66486;BME280;53303;47.476;8.084;2023-03-12T09:07:55;94975.13;;;19.21;37.47
66486;BME280;53303;47.476;8.084;2023-03-12T09:10:20;95008.72;;;19.37;37.50
66486;BME280;53303;47.476;8.084;2023-03-12T09:12:46;95005.25;;;19.31;37.40
66486;BME280;53303;47.476;8.084;2023-03-12T09:15:11;95008.47;;;19.35;37.34
66486;BME280;53303;47.476;8.084;2023-03-12T09:17:37;94991.41;;;19.31;37.29
66486;BME280;53303;47.476;8.084;2023-03-12T09:20:04;94975.16;;;19.16;37.36
66486;BME280;53303;47.476;8.084;2023-03-12T09:22:36;94999.41;;;19.40;37.19
66486;BME280;53303;47.476;8.084;2023-03-12T09:25:07;95016.47;;;19.44;37.26
66486;BME280;53303;47.476;8.084;2023-03-12T09:27:38;95005.22;;;19.36;37.27
66486;BME280;53303;47.476;8.084;2023-03-12T09:30:05;95007.44;;;19.44;37.26
66486;BME280;53303;47.476;8.084;2023-03-12T09:32:31;95008.16;;;19.44;37.39
66486;BME280;53303;47.476;8.084;2023-03-12T09:34:59;95008.44;;;19.40;37.20
66486;BME280;53303;47.476;8.084;2023-03-12T09:37:25;95002.94;;;19.35;37.38
66486;BME280;53303;47.476;8.084;2023-03-12T09:39:51;95013.97;;;19.40;37.53
66486;BME280;53303;47.476;8.084;2023-03-12T09:44:58;95002.47;;;19.31;37.37
66486;BME280;53303;47.476;8.084;2023-03-12T09:47:30;95027.03;;;19.46;37.17
66486;BME280;53303;47.476;8.084;2023-03-12T09:50:03;95021.78;;;19.42;37.22
66486;BME280;53303;47.476;8.084;2023-03-12T09:52:35;95004.00;;;19.26;37.30
66486;BME280;53303;47.476;8.084;2023-03-12T09:55:11;95036.59;;;19.45;37.32
66486;BME280;53303;47.476;8.084;2023-03-12T09:57:42;95024.06;;;19.38;37.33
66486;BME280;53303;47.476;8.084;2023-03-12T10:00:14;95030.53;;;19.46;37.27
66486;BME280;53303;47.476;8.084;2023-03-12T10:13:23;95102.00;;;19.42;37.12
66486;BME280;53303;47.476;8.084;2023-03-12T10:21:25;95123.38;;;19.47;37.31
66486;BME280;53303;47.476;8.084;2023-03-12T10:26:33;95126.88;;;19.48;37.23
66486;BME280;53303;47.476;8.084;2023-03-12T10:31:47;95134.66;;;19.49;37.26
66486;BME280;53303;47.476;8.084;2023-03-12T10:34:36;95137.19;;;19.47;37.38
66486;BME280;53303;47.476;8.084;2023-03-12T10:37:13;95139.97;;;19.47;37.15
66486;BME280;53303;47.476;8.084;2023-03-12T10:39:40;95145.78;;;19.44;37.33
66486;BME280;53303;47.476;8.084;2023-03-12T10:42:18;95147.78;;;19.43;37.25
66486;BME280;53303;47.476;8.084;2023-03-12T10:44:50;95121.69;;;19.27;37.06
66486;BME280;53303;47.476;8.084;2023-03-12T10:47:35;95143.97;;;19.46;37.20
66486;BME280;53303;47.476;8.084;2023-03-12T10:52:48;95153.53;;;19.51;37.09
66486;BME280;53303;47.476;8.084;2023-03-12T10:57:45;95148.47;;;19.55;37.19
66486;BME280;53303;47.476;8.084;2023-03-12T11:00:29;95129.69;;;19.36;37.17
66486;BME280;53303;47.476;8.084;2023-03-12T11:03:05;95149.25;;;19.55;37.07
66486;BME280;53303;47.476;8.084;2023-03-12T11:05:51;95132.66;;;19.50;37.09
66486;BME280;53303;47.476;8.084;2023-03-12T11:08:31;95149.25;;;19.55;37.05
66486;BME280;53303;47.476;8.084;2023-03-12T11:10:59;95151.47;;;19.57;37.17
66486;BME280;53303;47.476;8.084;2023-03-12T11:16:02;95140.94;;;19.50;37.23
66486;BME280;53303;47.476;8.084;2023-03-12T11:18:34;95166.09;;;19.57;37.30
66486;BME280;53303;47.476;8.084;2023-03-12T11:24:24;95184.00;;;19.45;37.19
66486;BME280;53303;47.476;8.084;2023-03-12T11:26:29;95183.72;;;19.54;37.22
66486;BME280;53303;47.476;8.084;2023-03-12T11:29:28;95156.63;;;19.36;37.02
66486;BME280;53303;47.476;8.084;2023-03-12T11:32:26;95132.28;;;19.17;37.34
66486;BME280;53303;47.476;8.084;2023-03-12T11:34:56;95171.19;;;19.42;37.27
66486;BME280;53303;47.476;8.084;2023-03-12T11:45:46;95179.16;;;19.63;36.99
66486;BME280;53303;47.476;8.084;2023-03-12T11:48:25;95168.81;;;19.63;37.02
66486;BME280;53303;47.476;8.084;2023-03-12T11:50:59;95176.88;;;19.67;37.09
66486;BME280;53303;47.476;8.084;2023-03-12T11:53:37;95155.47;;;19.67;37.01
66486;BME280;53303;47.476;8.084;2023-03-12T11:56:29;95148.69;;;19.68;37.14
66486;BME280;53303;47.476;8.084;2023-03-12T12:07:04;95146.66;;;19.74;37.01
66486;BME280;53303;47.476;8.084;2023-03-12T12:09:38;95139.63;;;19.73;36.94
66486;BME280;53303;47.476;8.084;2023-03-12T12:18:03;95149.94;;;19.67;36.89
66486;BME280;53303;47.476;8.084;2023-03-12T12:26:17;95157.78;;;19.57;37.20
66486;BME280;53303;47.476;8.084;2023-03-12T12:31:53;95194.22;;;19.67;37.20
66486;BME280;53303;47.476;8.084;2023-03-12T12:37:24;95172.81;;;19.68;37.06
66486;BME280;53303;47.476;8.084;2023-03-12T12:40:17;95169.81;;;19.66;37.13
66486;BME280;53303;47.476;8.084;2023-03-12T12:45:37;95149.22;;;19.61;37.09
66486;BME280;53303;47.476;8.084;2023-03-12T12:48:16;95151.72;;;19.65;36.85
66486;BME280;53303;47.476;8.084;2023-03-12T12:50:44;95153.47;;;19.62;37.13
66486;BME280;53303;47.476;8.084;2023-03-12T12:53:45;95156.00;;;19.60;37.23
66486;BME280;53303;47.476;8.084;2023-03-12T12:56:27;95165.78;;;19.67;36.87
66486;BME280;53303;47.476;8.084;2023-03-12T13:01:41;95162.00;;;19.64;37.12
66486;BME280;53303;47.476;8.084;2023-03-12T13:04:26;95172.81;;;19.68;36.87
66486;BME280;53303;47.476;8.084;2023-03-12T13:07:00;95169.06;;;19.65;37.16
66486;BME280;53303;47.476;8.084;2023-03-12T13:09:45;95163.53;;;19.65;37.14
66486;BME280;53303;47.476;8.084;2023-03-12T13:14:43;95163.78;;;19.67;37.13
66486;BME280;53303;47.476;8.084;2023-03-12T13:19:53;95164.53;;;19.62;37.13
66486;BME280;53303;47.476;8.084;2023-03-12T13:28:00;95178.88;;;19.66;37.42
66486;BME280;53303;47.476;8.084;2023-03-12T13:40:53;95167.81;;;19.66;37.36
66486;BME280;53303;47.476;8.084;2023-03-12T13:43:47;95147.47;;;19.58;37.20
66486;BME280;53303;47.476;8.084;2023-03-12T13:48:44;95159.47;;;19.72;37.12
66486;BME280;53303;47.476;8.084;2023-03-12T13:51:18;95152.22;;;19.63;37.23
66486;BME280;53303;47.476;8.084;2023-03-12T13:54:03;95155.97;;;19.66;37.22
66486;BME280;53303;47.476;8.084;2023-03-12T13:56:31;95102.53;;;19.35;37.34
66486;BME280;53303;47.476;8.084;2023-03-12T13:59:03;95151.44;;;19.74;37.16
66486;BME280;53303;47.476;8.084;2023-03-12T14:01:35;95149.41;;;19.74;37.25
66486;BME280;53303;47.476;8.084;2023-03-12T14:04:05;95123.56;;;19.55;37.09
66486;BME280;53303;47.476;8.084;2023-03-12T14:06:47;95151.66;;;19.76;37.07
66486;BME280;53303;47.476;8.084;2023-03-12T14:17:19;95140.06;;;19.83;37.13
66486;BME280;53303;47.476;8.084;2023-03-12T14:19:55;95130.00;;;19.86;37.11
66486;BME280;53303;47.476;8.084;2023-03-12T14:22:22;95120.63;;;19.89;37.05
66486;BME280;53303;47.476;8.084;2023-03-12T14:24:53;95100.06;;;19.78;37.16
66486;BME280;53303;47.476;8.084;2023-03-12T14:27:24;95116.81;;;19.97;36.94
66486;BME280;53303;47.476;8.084;2023-03-12T14:32:21;95111.22;;;20.03;37.01
66486;BME280;53303;47.476;8.084;2023-03-12T14:34:53;95085.13;;;19.93;36.86
66486;BME280;53303;47.476;8.084;2023-03-12T14:37:27;95096.34;;;20.06;36.91
66486;BME280;53303;47.476;8.084;2023-03-12T14:40:00;95091.78;;;20.09;36.96
66486;BME280;53303;47.476;8.084;2023-03-12T14:42:34;95084.81;;;20.02;37.04
66486;BME280;53303;47.476;8.084;2023-03-12T14:45:11;95086.00;;;20.07;36.88
66486;BME280;53303;47.476;8.084;2023-03-12T14:47:51;95089.00;;;20.09;36.85
66486;BME280;53303;47.476;8.084;2023-03-12T14:52:51;95041.16;;;19.78;37.04
66486;BME280;53303;47.476;8.084;2023-03-12T14:55:24;95076.00;;;19.98;37.01
66486;BME280;53303;47.476;8.084;2023-03-12T14:58:14;95094.84;;;20.05;37.31
66486;BME280;53303;47.476;8.084;2023-03-12T15:00:41;95102.41;;;20.05;36.84
66486;BME280;53303;47.476;8.084;2023-03-12T15:03:12;95059.31;;;19.79;37.24
66486;BME280;53303;47.476;8.084;2023-03-12T15:05:45;95074.78;;;19.93;37.22
66486;BME280;53303;47.476;8.084;2023-03-12T15:08:12;95075.97;;;20.04;37.14